Accueil
METAR-TAF:

METAR-TAF

Aéroports :

Base aérienne

Tulln an der Donau, Autriche

latitude: 48-19N, longitude: 016-07E, altitude: 175 m

METAR: absent

Heure: 11:50 (09:50 UTC)

Prévision

Le bulletin a été fait il y a 1 heure et 35 minutes, à 08:15 UTC
Prévision valable du 13 à 09 UTC au 13 à 18 UTC
Vent 5 kt de direction variable
Visibilité 10 km ou plus
Nuages fragmentés à une hauteur de 10000 ft
Evoluant progressivement
du 13 à 12 UTC au 13 à 14 UTC
Vent 8 kt de ouest
Nuages épars à une hauteur de 4000 ft
Nuages épars à une hauteur de 10000 ft

TAF: LOXT 130815Z 1309/1318 VRB05KT 9999 BKN100 BECMG 1312/1314 28008KT SCT040 SCT100

Observations et prévisions météorologiques de plus de 4000 aéroports (messages METAR et TAF).

Les stations disponibles sont représentées par des disques jaunes et rouges sur la carte.

Passer la souris dessus pour voir le nom de la station.

Cliquer dessus pour voir les observations et prévisions météorologiques.

Pour changer de carte: cliquez sur les boutons verts avec une croix noire pour zoomer, sur le bouton vert avec un tiret pour effectuer un zoom arrière, ou sur les flèches vertes pour les cartes adjacentes.


METAR-TAF: